sensor_id;sensor_type;location;lat;lon;timestamp;P1;durP1;ratioP1;P2;durP2;ratioP2
5774;SDS011;2913;51.120;6.772;2022-08-21T00:00:02;13.68;;;6.72;;
5774;SDS011;2913;51.120;6.772;2022-08-21T00:02:35;15.73;;;7.13;;
5774;SDS011;2913;51.120;6.772;2022-08-21T00:05:00;11.95;;;7.00;;
5774;SDS011;2913;51.120;6.772;2022-08-21T00:07:27;15.90;;;7.05;;
5774;SDS011;2913;51.120;6.772;2022-08-21T00:09:52;17.90;;;7.22;;
5774;SDS011;2913;51.120;6.772;2022-08-21T00:12:19;14.23;;;6.57;;
5774;SDS011;2913;51.120;6.772;2022-08-21T00:14:45;16.85;;;7.32;;
5774;SDS011;2913;51.120;6.772;2022-08-21T00:17:13;17.33;;;7.30;;
5774;SDS011;2913;51.120;6.772;2022-08-21T00:19:41;20.23;;;7.03;;
5774;SDS011;2913;51.120;6.772;2022-08-21T00:22:07;16.40;;;7.10;;
5774;SDS011;2913;51.120;6.772;2022-08-21T00:24:32;11.75;;;7.18;;
5774;SDS011;2913;51.120;6.772;2022-08-21T00:26:58;14.00;;;7.78;;
5774;SDS011;2913;51.120;6.772;2022-08-21T00:29:24;15.65;;;7.43;;
5774;SDS011;2913;51.120;6.772;2022-08-21T00:31:52;16.17;;;7.97;;
5774;SDS011;2913;51.120;6.772;2022-08-21T00:34:20;18.23;;;8.73;;
5774;SDS011;2913;51.120;6.772;2022-08-21T00:36:48;17.75;;;8.57;;
5774;SDS011;2913;51.120;6.772;2022-08-21T00:39:13;17.90;;;7.95;;
5774;SDS011;2913;51.120;6.772;2022-08-21T00:41:40;18.00;;;7.50;;
5774;SDS011;2913;51.120;6.772;2022-08-21T00:44:07;20.67;;;8.50;;
5774;SDS011;2913;51.120;6.772;2022-08-21T00:46:34;15.63;;;8.05;;
5774;SDS011;2913;51.120;6.772;2022-08-21T00:49:03;20.73;;;8.60;;
5774;SDS011;2913;51.120;6.772;2022-08-21T00:51:37;22.05;;;8.73;;
5774;SDS011;2913;51.120;6.772;2022-08-21T00:54:09;19.95;;;8.40;;
5774;SDS011;2913;51.120;6.772;2022-08-21T00:56:38;22.13;;;8.20;;
5774;SDS011;2913;51.120;6.772;2022-08-21T00:59:06;16.08;;;9.07;;
5774;SDS011;2913;51.120;6.772;2022-08-21T01:01:35;19.30;;;8.55;;
5774;SDS011;2913;51.120;6.772;2022-08-21T01:04:03;17.83;;;8.32;;
5774;SDS011;2913;51.120;6.772;2022-08-21T01:06:28;18.85;;;8.20;;
5774;SDS011;2913;51.120;6.772;2022-08-21T01:08:57;20.40;;;8.57;;
5774;SDS011;2913;51.120;6.772;2022-08-21T01:11:22;21.05;;;8.93;;
5774;SDS011;2913;51.120;6.772;2022-08-21T01:13:48;21.30;;;8.93;;
5774;SDS011;2913;51.120;6.772;2022-08-21T01:16:16;19.60;;;8.48;;
5774;SDS011;2913;51.120;6.772;2022-08-21T01:18:45;17.95;;;8.20;;
5774;SDS011;2913;51.120;6.772;2022-08-21T01:21:17;15.02;;;8.13;;
5774;SDS011;2913;51.120;6.772;2022-08-21T01:23:49;16.48;;;7.88;;
5774;SDS011;2913;51.120;6.772;2022-08-21T01:26:20;15.57;;;7.53;;
5774;SDS011;2913;51.120;6.772;2022-08-21T01:31:35;17.77;;;8.60;;
5774;SDS011;2913;51.120;6.772;2022-08-21T01:34:04;19.55;;;8.82;;
5774;SDS011;2913;51.120;6.772;2022-08-21T01:36:33;21.73;;;10.00;;
5774;SDS011;2913;51.120;6.772;2022-08-21T01:38:59;15.00;;;9.13;;
5774;SDS011;2913;51.120;6.772;2022-08-21T01:41:30;15.27;;;8.63;;
5774;SDS011;2913;51.120;6.772;2022-08-21T01:43:58;19.65;;;8.80;;
5774;SDS011;2913;51.120;6.772;2022-08-21T01:46:26;18.13;;;9.15;;
5774;SDS011;2913;51.120;6.772;2022-08-21T01:48:54;19.23;;;8.52;;
5774;SDS011;2913;51.120;6.772;2022-08-21T01:51:19;19.42;;;10.00;;
5774;SDS011;2913;51.120;6.772;2022-08-21T01:53:45;24.17;;;9.85;;
5774;SDS011;2913;51.120;6.772;2022-08-21T01:56:12;16.85;;;8.93;;
5774;SDS011;2913;51.120;6.772;2022-08-21T01:58:41;18.58;;;8.45;;
5774;SDS011;2913;51.120;6.772;2022-08-21T02:01:08;21.83;;;9.82;;
5774;SDS011;2913;51.120;6.772;2022-08-21T02:03:34;24.40;;;9.00;;
5774;SDS011;2913;51.120;6.772;2022-08-21T02:06:00;25.13;;;9.15;;
5774;SDS011;2913;51.120;6.772;2022-08-21T02:08:27;26.02;;;9.38;;
5774;SDS011;2913;51.120;6.772;2022-08-21T02:10:55;22.23;;;9.32;;
5774;SDS011;2913;51.120;6.772;2022-08-21T02:13:23;20.95;;;9.70;;
5774;SDS011;2913;51.120;6.772;2022-08-21T02:15:49;26.23;;;9.57;;
5774;SDS011;2913;51.120;6.772;2022-08-21T02:18:15;24.95;;;9.90;;
5774;SDS011;2913;51.120;6.772;2022-08-21T02:20:42;17.02;;;9.73;;
5774;SDS011;2913;51.120;6.772;2022-08-21T02:23:12;17.58;;;11.05;;
5774;SDS011;2913;51.120;6.772;2022-08-21T02:25:41;18.77;;;10.13;;
5774;SDS011;2913;51.120;6.772;2022-08-21T02:28:12;18.08;;;9.80;;
5774;SDS011;2913;51.120;6.772;2022-08-21T02:30:44;16.35;;;9.73;;
5774;SDS011;2913;51.120;6.772;2022-08-21T02:33:11;17.23;;;9.95;;
5774;SDS011;2913;51.120;6.772;2022-08-21T02:35:40;21.00;;;10.18;;
5774;SDS011;2913;51.120;6.772;2022-08-21T02:38:08;22.00;;;10.13;;
5774;SDS011;2913;51.120;6.772;2022-08-21T02:40:37;19.73;;;9.73;;
5774;SDS011;2913;51.120;6.772;2022-08-21T02:43:11;23.55;;;10.00;;
5774;SDS011;2913;51.120;6.772;2022-08-21T02:45:37;26.23;;;10.57;;
5774;SDS011;2913;51.120;6.772;2022-08-21T02:48:04;22.02;;;10.13;;
5774;SDS011;2913;51.120;6.772;2022-08-21T02:50:36;18.45;;;9.85;;
5774;SDS011;2913;51.120;6.772;2022-08-21T02:53:04;24.80;;;10.77;;
5774;SDS011;2913;51.120;6.772;2022-08-21T02:55:36;17.13;;;10.48;;
5774;SDS011;2913;51.120;6.772;2022-08-21T02:58:04;19.58;;;10.65;;
5774;SDS011;2913;51.120;6.772;2022-08-21T03:00:31;23.15;;;10.77;;
5774;SDS011;2913;51.120;6.772;2022-08-21T03:02:59;22.70;;;11.07;;
5774;SDS011;2913;51.120;6.772;2022-08-21T03:05:31;22.27;;;11.80;;
5774;SDS011;2913;51.120;6.772;2022-08-21T03:07:58;21.55;;;10.30;;
5774;SDS011;2913;51.120;6.772;2022-08-21T03:10:25;23.65;;;10.77;;
5774;SDS011;2913;51.120;6.772;2022-08-21T03:12:51;23.85;;;10.45;;
5774;SDS011;2913;51.120;6.772;2022-08-21T03:15:18;16.58;;;10.23;;
5774;SDS011;2913;51.120;6.772;2022-08-21T03:17:47;24.55;;;10.82;;
5774;SDS011;2913;51.120;6.772;2022-08-21T03:20:13;23.20;;;10.68;;
5774;SDS011;2913;51.120;6.772;2022-08-21T03:22:45;27.13;;;10.82;;
5774;SDS011;2913;51.120;6.772;2022-08-21T03:25:13;19.45;;;10.65;;
5774;SDS011;2913;51.120;6.772;2022-08-21T03:27:38;30.58;;;11.23;;
5774;SDS011;2913;51.120;6.772;2022-08-21T03:30:05;24.90;;;10.52;;
5774;SDS011;2913;51.120;6.772;2022-08-21T03:32:32;17.55;;;11.00;;
5774;SDS011;2913;51.120;6.772;2022-08-21T03:34:58;22.27;;;10.80;;
5774;SDS011;2913;51.120;6.772;2022-08-21T03:37:30;28.65;;;11.65;;
5774;SDS011;2913;51.120;6.772;2022-08-21T03:39:58;20.48;;;12.13;;
5774;SDS011;2913;51.120;6.772;2022-08-21T03:42:24;19.73;;;11.25;;
5774;SDS011;2913;51.120;6.772;2022-08-21T03:44:50;19.33;;;10.82;;
5774;SDS011;2913;51.120;6.772;2022-08-21T03:47:16;25.35;;;11.38;;
5774;SDS011;2913;51.120;6.772;2022-08-21T03:49:42;25.77;;;12.40;;
5774;SDS011;2913;51.120;6.772;2022-08-21T03:52:08;27.83;;;12.13;;
5774;SDS011;2913;51.120;6.772;2022-08-21T03:54:34;22.48;;;12.00;;
5774;SDS011;2913;51.120;6.772;2022-08-21T03:56:59;17.63;;;11.07;;
5774;SDS011;2913;51.120;6.772;2022-08-21T03:59:25;24.70;;;11.65;;
5774;SDS011;2913;51.120;6.772;2022-08-21T04:01:54;25.73;;;12.48;;
5774;SDS011;2913;51.120;6.772;2022-08-21T04:04:23;18.73;;;10.60;;
5774;SDS011;2913;51.120;6.772;2022-08-21T04:06:50;21.85;;;10.98;;
5774;SDS011;2913;51.120;6.772;2022-08-21T04:09:17;18.15;;;11.00;;
5774;SDS011;2913;51.120;6.772;2022-08-21T04:11:44;19.95;;;10.77;;
5774;SDS011;2913;51.120;6.772;2022-08-21T04:14:15;17.50;;;10.63;;
5774;SDS011;2913;51.120;6.772;2022-08-21T04:16:42;17.02;;;9.25;;
5774;SDS011;2913;51.120;6.772;2022-08-21T04:19:11;19.05;;;9.90;;
5774;SDS011;2913;51.120;6.772;2022-08-21T04:21:42;14.68;;;9.13;;
5774;SDS011;2913;51.120;6.772;2022-08-21T04:24:08;18.80;;;9.13;;
5774;SDS011;2913;51.120;6.772;2022-08-21T04:26:35;22.42;;;9.25;;
5774;SDS011;2913;51.120;6.772;2022-08-21T04:29:02;21.40;;;9.38;;
5774;SDS011;2913;51.120;6.772;2022-08-21T04:31:31;20.38;;;9.25;;
5774;SDS011;2913;51.120;6.772;2022-08-21T04:33:58;21.98;;;10.73;;
5774;SDS011;2913;51.120;6.772;2022-08-21T04:36:24;18.33;;;10.82;;
5774;SDS011;2913;51.120;6.772;2022-08-21T04:38:49;21.25;;;10.88;;
5774;SDS011;2913;51.120;6.772;2022-08-21T04:41:17;22.80;;;11.25;;
5774;SDS011;2913;51.120;6.772;2022-08-21T04:43:48;28.00;;;12.32;;
5774;SDS011;2913;51.120;6.772;2022-08-21T04:46:14;21.00;;;11.18;;
5774;SDS011;2913;51.120;6.772;2022-08-21T04:48:40;21.00;;;11.90;;
5774;SDS011;2913;51.120;6.772;2022-08-21T04:51:07;22.38;;;11.57;;
5774;SDS011;2913;51.120;6.772;2022-08-21T04:56:26;30.67;;;11.88;;
5774;SDS011;2913;51.120;6.772;2022-08-21T04:59:00;22.83;;;11.23;;
5774;SDS011;2913;51.120;6.772;2022-08-21T05:01:32;21.85;;;11.32;;
5774;SDS011;2913;51.120;6.772;2022-08-21T05:03:59;29.05;;;11.73;;
5774;SDS011;2913;51.120;6.772;2022-08-21T05:06:29;27.15;;;12.38;;
5774;SDS011;2913;51.120;6.772;2022-08-21T05:09:02;23.75;;;11.98;;
5774;SDS011;2913;51.120;6.772;2022-08-21T05:11:32;25.30;;;11.00;;
5774;SDS011;2913;51.120;6.772;2022-08-21T05:13:58;28.42;;;12.20;;
5774;SDS011;2913;51.120;6.772;2022-08-21T05:16:24;36.25;;;12.63;;
5774;SDS011;2913;51.120;6.772;2022-08-21T05:18:49;25.15;;;11.88;;
5774;SDS011;2913;51.120;6.772;2022-08-21T05:21:15;27.42;;;11.80;;
5774;SDS011;2913;51.120;6.772;2022-08-21T05:23:46;31.48;;;11.25;;
5774;SDS011;2913;51.120;6.772;2022-08-21T05:26:11;28.83;;;10.55;;
5774;SDS011;2913;51.120;6.772;2022-08-21T05:28:37;26.45;;;10.63;;
5774;SDS011;2913;51.120;6.772;2022-08-21T05:31:03;22.65;;;10.02;;
5774;SDS011;2913;51.120;6.772;2022-08-21T05:33:28;20.67;;;9.65;;
5774;SDS011;2913;51.120;6.772;2022-08-21T05:35:54;23.90;;;10.05;;
5774;SDS011;2913;51.120;6.772;2022-08-21T05:38:21;18.75;;;9.70;;
5774;SDS011;2913;51.120;6.772;2022-08-21T05:40:50;21.08;;;9.25;;
5774;SDS011;2913;51.120;6.772;2022-08-21T05:43:16;18.08;;;9.45;;
5774;SDS011;2913;51.120;6.772;2022-08-21T05:45:42;12.77;;;8.38;;
5774;SDS011;2913;51.120;6.772;2022-08-21T05:48:09;24.60;;;9.50;;
5774;SDS011;2913;51.120;6.772;2022-08-21T05:50:36;21.77;;;9.50;;
5774;SDS011;2913;51.120;6.772;2022-08-21T05:53:03;22.70;;;8.93;;
5774;SDS011;2913;51.120;6.772;2022-08-21T05:55:29;23.27;;;8.85;;
5774;SDS011;2913;51.120;6.772;2022-08-21T05:57:55;18.92;;;8.35;;
5774;SDS011;2913;51.120;6.772;2022-08-21T06:00:24;16.48;;;7.75;;
5774;SDS011;2913;51.120;6.772;2022-08-21T06:02:49;17.95;;;7.47;;
5774;SDS011;2913;51.120;6.772;2022-08-21T06:05:17;21.05;;;7.72;;
5774;SDS011;2913;51.120;6.772;2022-08-21T06:07:48;17.58;;;6.97;;
5774;SDS011;2913;51.120;6.772;2022-08-21T06:10:14;22.75;;;7.65;;
5774;SDS011;2913;51.120;6.772;2022-08-21T06:12:39;19.23;;;6.63;;
5774;SDS011;2913;51.120;6.772;2022-08-21T06:15:07;21.38;;;6.78;;
5774;SDS011;2913;51.120;6.772;2022-08-21T06:17:35;19.92;;;6.78;;
5774;SDS011;2913;51.120;6.772;2022-08-21T06:20:01;27.52;;;6.60;;
5774;SDS011;2913;51.120;6.772;2022-08-21T06:22:28;19.70;;;6.90;;
5774;SDS011;2913;51.120;6.772;2022-08-21T06:24:56;12.68;;;6.68;;
5774;SDS011;2913;51.120;6.772;2022-08-21T06:27:24;17.75;;;7.53;;
5774;SDS011;2913;51.120;6.772;2022-08-21T06:29:49;17.88;;;6.50;;
5774;SDS011;2913;51.120;6.772;2022-08-21T06:32:15;19.48;;;6.85;;
5774;SDS011;2913;51.120;6.772;2022-08-21T06:34:43;18.42;;;6.78;;
5774;SDS011;2913;51.120;6.772;2022-08-21T06:37:09;17.30;;;6.70;;
5774;SDS011;2913;51.120;6.772;2022-08-21T06:39:34;20.33;;;6.90;;
5774;SDS011;2913;51.120;6.772;2022-08-21T06:42:03;14.35;;;6.85;;
5774;SDS011;2913;51.120;6.772;2022-08-21T06:44:29;21.70;;;7.00;;
5774;SDS011;2913;51.120;6.772;2022-08-21T06:46:57;18.90;;;6.22;;
5774;SDS011;2913;51.120;6.772;2022-08-21T06:49:25;23.17;;;6.03;;
5774;SDS011;2913;51.120;6.772;2022-08-21T06:51:51;18.05;;;5.60;;
5774;SDS011;2913;51.120;6.772;2022-08-21T06:54:16;18.08;;;6.50;;
5774;SDS011;2913;51.120;6.772;2022-08-21T06:56:42;15.25;;;5.85;;
5774;SDS011;2913;51.120;6.772;2022-08-21T06:59:07;19.63;;;6.38;;
5774;SDS011;2913;51.120;6.772;2022-08-21T07:01:33;14.55;;;5.30;;
5774;SDS011;2913;51.120;6.772;2022-08-21T07:03:59;14.55;;;6.03;;
5774;SDS011;2913;51.120;6.772;2022-08-21T07:06:26;14.30;;;5.00;;
5774;SDS011;2913;51.120;6.772;2022-08-21T07:08:52;14.85;;;5.82;;
5774;SDS011;2913;51.120;6.772;2022-08-21T07:11:21;19.45;;;4.80;;
5774;SDS011;2913;51.120;6.772;2022-08-21T07:13:47;18.25;;;5.20;;
5774;SDS011;2913;51.120;6.772;2022-08-21T07:16:14;15.00;;;4.78;;
5774;SDS011;2913;51.120;6.772;2022-08-21T07:18:42;13.40;;;4.47;;
5774;SDS011;2913;51.120;6.772;2022-08-21T07:21:08;14.88;;;4.35;;
5774;SDS011;2913;51.120;6.772;2022-08-21T07:23:39;25.30;;;4.55;;
5774;SDS011;2913;51.120;6.772;2022-08-21T07:26:08;9.32;;;4.30;;
5774;SDS011;2913;51.120;6.772;2022-08-21T07:28:35;11.25;;;4.38;;
5774;SDS011;2913;51.120;6.772;2022-08-21T07:31:00;10.82;;;3.88;;
5774;SDS011;2913;51.120;6.772;2022-08-21T07:33:27;11.43;;;3.97;;
5774;SDS011;2913;51.120;6.772;2022-08-21T07:35:59;17.35;;;3.53;;
5774;SDS011;2913;51.120;6.772;2022-08-21T07:38:26;9.68;;;2.88;;
5774;SDS011;2913;51.120;6.772;2022-08-21T07:40:52;11.38;;;2.90;;
5774;SDS011;2913;51.120;6.772;2022-08-21T07:43:20;14.80;;;3.05;;
5774;SDS011;2913;51.120;6.772;2022-08-21T07:45:47;17.88;;;2.70;;
5774;SDS011;2913;51.120;6.772;2022-08-21T07:48:15;11.70;;;3.03;;
5774;SDS011;2913;51.120;6.772;2022-08-21T07:50:41;11.18;;;2.72;;
5774;SDS011;2913;51.120;6.772;2022-08-21T07:53:07;14.70;;;2.92;;
5774;SDS011;2913;51.120;6.772;2022-08-21T07:55:35;12.55;;;2.50;;
5774;SDS011;2913;51.120;6.772;2022-08-21T07:58:01;13.52;;;2.55;;
5774;SDS011;2913;51.120;6.772;2022-08-21T08:00:29;10.48;;;2.58;;
5774;SDS011;2913;51.120;6.772;2022-08-21T08:02:58;12.00;;;2.40;;
5774;SDS011;2913;51.120;6.772;2022-08-21T08:05:28;11.05;;;2.53;;
5774;SDS011;2913;51.120;6.772;2022-08-21T08:07:55;13.90;;;2.70;;
5774;SDS011;2913;51.120;6.772;2022-08-21T08:10:23;8.88;;;1.95;;
5774;SDS011;2913;51.120;6.772;2022-08-21T08:12:54;8.15;;;2.40;;
5774;SDS011;2913;51.120;6.772;2022-08-21T08:15:23;9.07;;;2.55;;
5774;SDS011;2913;51.120;6.772;2022-08-21T08:17:50;6.75;;;1.70;;
5774;SDS011;2913;51.120;6.772;2022-08-21T08:20:17;11.35;;;2.05;;
5774;SDS011;2913;51.120;6.772;2022-08-21T08:22:45;14.82;;;2.40;;
5774;SDS011;2913;51.120;6.772;2022-08-21T08:25:11;12.40;;;2.30;;
5774;SDS011;2913;51.120;6.772;2022-08-21T08:27:39;11.65;;;2.42;;
5774;SDS011;2913;51.120;6.772;2022-08-21T08:30:06;8.20;;;2.10;;
5774;SDS011;2913;51.120;6.772;2022-08-21T08:32:33;13.40;;;2.45;;
5774;SDS011;2913;51.120;6.772;2022-08-21T08:34:59;12.02;;;2.15;;
5774;SDS011;2913;51.120;6.772;2022-08-21T08:37:28;12.77;;;1.55;;
5774;SDS011;2913;51.120;6.772;2022-08-21T08:39:53;7.60;;;1.67;;
5774;SDS011;2913;51.120;6.772;2022-08-21T08:42:27;7.80;;;1.75;;
5774;SDS011;2913;51.120;6.772;2022-08-21T08:45:00;7.72;;;1.63;;
5774;SDS011;2913;51.120;6.772;2022-08-21T08:47:30;8.07;;;1.50;;
5774;SDS011;2913;51.120;6.772;2022-08-21T08:50:07;5.75;;;1.30;;
5774;SDS011;2913;51.120;6.772;2022-08-21T08:52:43;3.63;;;1.08;;
5774;SDS011;2913;51.120;6.772;2022-08-21T08:55:33;10.48;;;1.75;;
5774;SDS011;2913;51.120;6.772;2022-08-21T08:58:02;5.82;;;1.27;;
5774;SDS011;2913;51.120;6.772;2022-08-21T09:00:31;5.63;;;1.30;;
5774;SDS011;2913;51.120;6.772;2022-08-21T09:02:58;4.20;;;1.20;;
5774;SDS011;2913;51.120;6.772;2022-08-21T09:05:45;4.45;;;1.15;;
5774;SDS011;2913;51.120;6.772;2022-08-21T09:11:00;6.88;;;1.48;;
5774;SDS011;2913;51.120;6.772;2022-08-21T09:13:40;7.47;;;1.73;;
5774;SDS011;2913;51.120;6.772;2022-08-21T09:16:25;5.32;;;1.02;;
5774;SDS011;2913;51.120;6.772;2022-08-21T09:27:35;10.90;;;1.50;;
5774;SDS011;2913;51.120;6.772;2022-08-21T09:30:01;6.18;;;1.40;;
5774;SDS011;2913;51.120;6.772;2022-08-21T09:32:35;10.88;;;1.65;;
5774;SDS011;2913;51.120;6.772;2022-08-21T09:35:14;8.60;;;1.58;;
5774;SDS011;2913;51.120;6.772;2022-08-21T09:37:57;11.52;;;1.85;;
5774;SDS011;2913;51.120;6.772;2022-08-21T09:45:39;8.00;;;1.50;;
5774;SDS011;2913;51.120;6.772;2022-08-21T09:48:14;7.13;;;1.77;;
5774;SDS011;2913;51.120;6.772;2022-08-21T09:50:45;8.07;;;1.73;;
5774;SDS011;2913;51.120;6.772;2022-08-21T09:53:23;6.60;;;1.60;;
5774;SDS011;2913;51.120;6.772;2022-08-21T09:55:57;15.40;;;1.58;;
5774;SDS011;2913;51.120;6.772;2022-08-21T09:58:47;9.93;;;1.50;;
5774;SDS011;2913;51.120;6.772;2022-08-21T10:01:19;6.97;;;1.55;;
5774;SDS011;2913;51.120;6.772;2022-08-21T10:04:01;7.20;;;1.73;;
5774;SDS011;2913;51.120;6.772;2022-08-21T10:06:37;6.75;;;1.73;;
5774;SDS011;2913;51.120;6.772;2022-08-21T10:09:07;8.10;;;1.50;;
5774;SDS011;2913;51.120;6.772;2022-08-21T10:11:35;8.23;;;1.77;;
5774;SDS011;2913;51.120;6.772;2022-08-21T10:21:57;21.58;;;2.33;;
5774;SDS011;2913;51.120;6.772;2022-08-21T10:24:38;13.55;;;1.90;;
5774;SDS011;2913;51.120;6.772;2022-08-21T10:27:24;8.18;;;1.50;;
5774;SDS011;2913;51.120;6.772;2022-08-21T10:32:32;7.90;;;1.58;;
5774;SDS011;2913;51.120;6.772;2022-08-21T10:35:26;9.35;;;1.52;;
5774;SDS011;2913;51.120;6.772;2022-08-21T10:43:02;9.02;;;1.60;;
5774;SDS011;2913;51.120;6.772;2022-08-21T10:48:32;5.97;;;1.40;;
5774;SDS011;2913;51.120;6.772;2022-08-21T11:04:39;5.70;;;1.50;;
5774;SDS011;2913;51.120;6.772;2022-08-21T11:07:15;7.78;;;1.55;;
5774;SDS011;2913;51.120;6.772;2022-08-21T11:09:45;7.13;;;1.67;;
5774;SDS011;2913;51.120;6.772;2022-08-21T11:12:34;15.05;;;1.92;;
5774;SDS011;2913;51.120;6.772;2022-08-21T11:17:44;11.40;;;1.77;;
5774;SDS011;2913;51.120;6.772;2022-08-21T11:23:00;7.93;;;1.75;;
5774;SDS011;2913;51.120;6.772;2022-08-21T11:25:38;6.90;;;1.48;;
5774;SDS011;2913;51.120;6.772;2022-08-21T11:28:45;6.10;;;1.77;;
5774;SDS011;2913;51.120;6.772;2022-08-21T11:41:43;8.57;;;1.70;;
5774;SDS011;2913;51.120;6.772;2022-08-21T11:44:25;8.93;;;1.98;;
5774;SDS011;2913;51.120;6.772;2022-08-21T11:52:05;5.03;;;1.52;;
5774;SDS011;2913;51.120;6.772;2022-08-21T12:02:34;7.05;;;1.70;;
5774;SDS011;2913;51.120;6.772;2022-08-21T12:05:11;9.57;;;1.77;;
5774;SDS011;2913;51.120;6.772;2022-08-21T12:10:38;13.55;;;1.92;;
5774;SDS011;2913;51.120;6.772;2022-08-21T12:13:25;7.15;;;2.08;;
5774;SDS011;2913;51.120;6.772;2022-08-21T12:15:52;6.18;;;2.13;;
5774;SDS011;2913;51.120;6.772;2022-08-21T12:18:29;6.82;;;1.60;;
5774;SDS011;2913;51.120;6.772;2022-08-21T12:20:57;14.75;;;1.85;;
5774;SDS011;2913;51.120;6.772;2022-08-21T12:23:31;7.68;;;1.77;;
5774;SDS011;2913;51.120;6.772;2022-08-21T12:26:27;5.07;;;1.50;;
5774;SDS011;2913;51.120;6.772;2022-08-21T12:29:25;9.43;;;1.63;;
5774;SDS011;2913;51.120;6.772;2022-08-21T12:31:58;11.60;;;2.35;;
5774;SDS011;2913;51.120;6.772;2022-08-21T12:35:06;7.40;;;2.17;;
5774;SDS011;2913;51.120;6.772;2022-08-21T12:37:45;9.82;;;1.77;;
5774;SDS011;2913;51.120;6.772;2022-08-21T12:43:33;12.38;;;1.42;;
5774;SDS011;2913;51.120;6.772;2022-08-21T12:46:03;6.15;;;1.52;;
5774;SDS011;2913;51.120;6.772;2022-08-21T12:48:44;10.20;;;1.67;;
5774;SDS011;2913;51.120;6.772;2022-08-21T12:51:16;6.88;;;1.48;;
5774;SDS011;2913;51.120;6.772;2022-08-21T12:53:51;6.15;;;1.48;;
5774;SDS011;2913;51.120;6.772;2022-08-21T12:56:25;10.60;;;1.58;;
5774;SDS011;2913;51.120;6.772;2022-08-21T12:58:55;10.43;;;1.65;;
5774;SDS011;2913;51.120;6.772;2022-08-21T13:04:05;6.57;;;1.27;;
5774;SDS011;2913;51.120;6.772;2022-08-21T13:06:41;6.82;;;1.65;;
5774;SDS011;2913;51.120;6.772;2022-08-21T13:09:12;6.35;;;1.85;;
5774;SDS011;2913;51.120;6.772;2022-08-21T13:11:49;13.80;;;1.60;;
5774;SDS011;2913;51.120;6.772;2022-08-21T13:16:53;7.88;;;1.45;;
5774;SDS011;2913;51.120;6.772;2022-08-21T13:19:20;5.88;;;1.70;;
5774;SDS011;2913;51.120;6.772;2022-08-21T13:21:49;6.35;;;1.48;;
5774;SDS011;2913;51.120;6.772;2022-08-21T13:26:59;5.88;;;1.35;;
5774;SDS011;2913;51.120;6.772;2022-08-21T13:29:32;7.97;;;1.48;;
5774;SDS011;2913;51.120;6.772;2022-08-21T13:34:33;6.82;;;1.38;;
5774;SDS011;2913;51.120;6.772;2022-08-21T13:37:02;9.77;;;1.50;;
5774;SDS011;2913;51.120;6.772;2022-08-21T13:39:30;5.10;;;1.38;;
5774;SDS011;2913;51.120;6.772;2022-08-21T13:41:57;7.82;;;1.25;;
5774;SDS011;2913;51.120;6.772;2022-08-21T13:47:04;4.57;;;1.13;;
5774;SDS011;2913;51.120;6.772;2022-08-21T13:49:34;11.38;;;1.30;;
5774;SDS011;2913;51.120;6.772;2022-08-21T13:52:12;7.32;;;1.40;;
5774;SDS011;2913;51.120;6.772;2022-08-21T13:54:51;5.35;;;1.27;;
5774;SDS011;2913;51.120;6.772;2022-08-21T13:57:23;5.25;;;1.35;;
5774;SDS011;2913;51.120;6.772;2022-08-21T14:00:19;7.55;;;1.30;;
5774;SDS011;2913;51.120;6.772;2022-08-21T14:02:53;9.05;;;1.75;;
5774;SDS011;2913;51.120;6.772;2022-08-21T14:05:34;6.82;;;1.13;;
5774;SDS011;2913;51.120;6.772;2022-08-21T14:08:05;4.15;;;1.20;;
5774;SDS011;2913;51.120;6.772;2022-08-21T14:10:35;5.35;;;1.65;;
5774;SDS011;2913;51.120;6.772;2022-08-21T14:13:06;4.35;;;1.33;;
5774;SDS011;2913;51.120;6.772;2022-08-21T14:15:33;6.00;;;1.25;;
5774;SDS011;2913;51.120;6.772;2022-08-21T14:18:14;3.40;;;1.33;;
5774;SDS011;2913;51.120;6.772;2022-08-21T14:20:42;7.18;;;1.27;;
5774;SDS011;2913;51.120;6.772;2022-08-21T14:23:12;3.20;;;1.40;;
5774;SDS011;2913;51.120;6.772;2022-08-21T14:25:51;6.38;;;0.95;;
5774;SDS011;2913;51.120;6.772;2022-08-21T14:28:30;7.13;;;1.30;;
5774;SDS011;2913;51.120;6.772;2022-08-21T14:33:42;6.40;;;1.60;;
5774;SDS011;2913;51.120;6.772;2022-08-21T14:36:08;3.30;;;1.30;;
5774;SDS011;2913;51.120;6.772;2022-08-21T14:38:37;4.43;;;1.30;;
5774;SDS011;2913;51.120;6.772;2022-08-21T14:43:44;5.40;;;1.50;;
5774;SDS011;2913;51.120;6.772;2022-08-21T14:46:12;7.80;;;1.30;;
5774;SDS011;2913;51.120;6.772;2022-08-21T14:48:40;6.25;;;1.45;;
5774;SDS011;2913;51.120;6.772;2022-08-21T14:51:06;7.68;;;1.25;;
5774;SDS011;2913;51.120;6.772;2022-08-21T14:53:32;7.82;;;1.77;;
5774;SDS011;2913;51.120;6.772;2022-08-21T14:56:00;10.27;;;2.35;;
5774;SDS011;2913;51.120;6.772;2022-08-21T14:58:35;6.95;;;1.63;;
5774;SDS011;2913;51.120;6.772;2022-08-21T15:01:06;9.05;;;1.33;;
5774;SDS011;2913;51.120;6.772;2022-08-21T15:03:34;4.95;;;1.42;;
5774;SDS011;2913;51.120;6.772;2022-08-21T15:06:00;5.50;;;1.30;;
5774;SDS011;2913;51.120;6.772;2022-08-21T15:08:26;5.07;;;1.45;;
5774;SDS011;2913;51.120;6.772;2022-08-21T15:10:52;4.25;;;1.35;;
5774;SDS011;2913;51.120;6.772;2022-08-21T15:13:18;7.97;;;1.50;;
5774;SDS011;2913;51.120;6.772;2022-08-21T15:15:48;7.85;;;1.42;;
5774;SDS011;2913;51.120;6.772;2022-08-21T15:18:21;15.38;;;1.90;;
5774;SDS011;2913;51.120;6.772;2022-08-21T15:20:50;7.70;;;1.40;;
5774;SDS011;2913;51.120;6.772;2022-08-21T15:23:19;6.78;;;1.60;;
5774;SDS011;2913;51.120;6.772;2022-08-21T15:25:46;4.47;;;1.40;;
5774;SDS011;2913;51.120;6.772;2022-08-21T15:28:13;5.15;;;1.42;;
5774;SDS011;2913;51.120;6.772;2022-08-21T15:30:43;6.00;;;1.45;;
5774;SDS011;2913;51.120;6.772;2022-08-21T15:33:09;8.07;;;1.42;;
5774;SDS011;2913;51.120;6.772;2022-08-21T15:35:37;5.35;;;1.42;;
5774;SDS011;2913;51.120;6.772;2022-08-21T15:38:07;5.85;;;1.20;;
5774;SDS011;2913;51.120;6.772;2022-08-21T15:40:33;6.63;;;1.20;;
5774;SDS011;2913;51.120;6.772;2022-08-21T15:43:00;6.63;;;1.50;;
5774;SDS011;2913;51.120;6.772;2022-08-21T15:45:28;3.67;;;1.33;;
5774;SDS011;2913;51.120;6.772;2022-08-21T15:47:54;3.75;;;1.30;;
5774;SDS011;2913;51.120;6.772;2022-08-21T15:50:20;6.60;;;1.23;;
5774;SDS011;2913;51.120;6.772;2022-08-21T15:52:47;8.70;;;1.77;;
5774;SDS011;2913;51.120;6.772;2022-08-21T15:55:13;5.28;;;1.20;;
5774;SDS011;2913;51.120;6.772;2022-08-21T15:57:43;5.63;;;1.30;;
5774;SDS011;2913;51.120;6.772;2022-08-21T16:00:15;4.05;;;1.50;;
5774;SDS011;2913;51.120;6.772;2022-08-21T16:02:48;5.10;;;1.30;;
5774;SDS011;2913;51.120;6.772;2022-08-21T16:05:17;3.50;;;1.20;;
5774;SDS011;2913;51.120;6.772;2022-08-21T16:07:44;6.13;;;1.10;;
5774;SDS011;2913;51.120;6.772;2022-08-21T16:10:14;8.50;;;1.40;;
5774;SDS011;2913;51.120;6.772;2022-08-21T16:12:42;4.63;;;1.33;;
5774;SDS011;2913;51.120;6.772;2022-08-21T16:15:11;7.53;;;1.50;;
5774;SDS011;2913;51.120;6.772;2022-08-21T16:17:38;4.75;;;1.55;;
5774;SDS011;2913;51.120;6.772;2022-08-21T16:20:10;7.35;;;1.48;;
5774;SDS011;2913;51.120;6.772;2022-08-21T16:22:38;2.83;;;1.33;;
5774;SDS011;2913;51.120;6.772;2022-08-21T16:25:06;3.72;;;1.40;;
5774;SDS011;2913;51.120;6.772;2022-08-21T16:27:33;7.28;;;1.67;;
5774;SDS011;2913;51.120;6.772;2022-08-21T16:29:59;4.43;;;1.40;;
5774;SDS011;2913;51.120;6.772;2022-08-21T16:32:26;2.95;;;1.20;;
5774;SDS011;2913;51.120;6.772;2022-08-21T16:34:56;5.90;;;1.35;;
5774;SDS011;2913;51.120;6.772;2022-08-21T16:37:24;6.07;;;1.27;;
5774;SDS011;2913;51.120;6.772;2022-08-21T16:39:49;4.00;;;1.40;;
5774;SDS011;2913;51.120;6.772;2022-08-21T16:42:22;6.05;;;1.38;;
5774;SDS011;2913;51.120;6.772;2022-08-21T16:44:50;7.28;;;2.20;;
5774;SDS011;2913;51.120;6.772;2022-08-21T16:47:16;8.48;;;1.40;;
5774;SDS011;2913;51.120;6.772;2022-08-21T16:49:42;6.57;;;1.55;;
5774;SDS011;2913;51.120;6.772;2022-08-21T16:52:11;6.07;;;1.63;;
5774;SDS011;2913;51.120;6.772;2022-08-21T16:54:36;4.20;;;1.17;;
5774;SDS011;2913;51.120;6.772;2022-08-21T16:57:03;11.13;;;1.60;;
5774;SDS011;2913;51.120;6.772;2022-08-21T16:59:33;5.90;;;1.30;;
5774;SDS011;2913;51.120;6.772;2022-08-21T17:02:00;9.82;;;1.60;;
5774;SDS011;2913;51.120;6.772;2022-08-21T17:04:26;3.83;;;1.40;;
5774;SDS011;2913;51.120;6.772;2022-08-21T17:06:52;4.18;;;1.60;;